sensor_id;sensor_type;location;lat;lon;timestamp;P1;durP1;ratioP1;P2;durP2;ratioP2
49614;SDS011;35517;45.272;9.984;2022-08-19T00:01:18;26.48;;;17.05;;
49614;SDS011;35517;45.272;9.984;2022-08-19T00:03:45;24.17;;;17.15;;
49614;SDS011;35517;45.272;9.984;2022-08-19T00:06:11;26.30;;;16.70;;
49614;SDS011;35517;45.272;9.984;2022-08-19T00:08:38;22.35;;;16.88;;
49614;SDS011;35517;45.272;9.984;2022-08-19T00:11:05;28.17;;;19.83;;
49614;SDS011;35517;45.272;9.984;2022-08-19T00:13:33;25.70;;;17.60;;
49614;SDS011;35517;45.272;9.984;2022-08-19T00:15:59;25.17;;;19.25;;
49614;SDS011;35517;45.272;9.984;2022-08-19T00:18:26;25.08;;;18.70;;
49614;SDS011;35517;45.272;9.984;2022-08-19T00:20:53;24.90;;;18.92;;
49614;SDS011;35517;45.272;9.984;2022-08-19T00:23:20;22.80;;;18.80;;
49614;SDS011;35517;45.272;9.984;2022-08-19T00:25:46;29.73;;;18.50;;
49614;SDS011;35517;45.272;9.984;2022-08-19T00:28:13;30.85;;;18.20;;
49614;SDS011;35517;45.272;9.984;2022-08-19T00:30:39;26.92;;;18.27;;
49614;SDS011;35517;45.272;9.984;2022-08-19T00:33:06;22.05;;;16.70;;
49614;SDS011;35517;45.272;9.984;2022-08-19T00:35:33;25.17;;;18.08;;
49614;SDS011;35517;45.272;9.984;2022-08-19T00:38:00;21.60;;;15.18;;
49614;SDS011;35517;45.272;9.984;2022-08-19T00:40:27;29.50;;;17.02;;
49614;SDS011;35517;45.272;9.984;2022-08-19T00:42:53;27.80;;;16.02;;
49614;SDS011;35517;45.272;9.984;2022-08-19T00:45:21;22.02;;;14.32;;
49614;SDS011;35517;45.272;9.984;2022-08-19T00:47:48;19.95;;;15.15;;
49614;SDS011;35517;45.272;9.984;2022-08-19T00:50:15;30.45;;;17.70;;
49614;SDS011;35517;45.272;9.984;2022-08-19T00:52:44;28.67;;;15.10;;
49614;SDS011;35517;45.272;9.984;2022-08-19T00:55:16;22.45;;;15.00;;
49614;SDS011;35517;45.272;9.984;2022-08-19T00:57:46;24.52;;;14.95;;
49614;SDS011;35517;45.272;9.984;2022-08-19T01:00:15;20.27;;;13.80;;
49614;SDS011;35517;45.272;9.984;2022-08-19T01:02:42;23.95;;;14.38;;
49614;SDS011;35517;45.272;9.984;2022-08-19T01:05:11;20.25;;;13.25;;
49614;SDS011;35517;45.272;9.984;2022-08-19T01:07:39;19.27;;;13.23;;
49614;SDS011;35517;45.272;9.984;2022-08-19T01:10:08;16.35;;;12.00;;
49614;SDS011;35517;45.272;9.984;2022-08-19T01:12:34;16.23;;;12.00;;
49614;SDS011;35517;45.272;9.984;2022-08-19T01:15:02;13.82;;;11.23;;
49614;SDS011;35517;45.272;9.984;2022-08-19T01:17:28;17.50;;;11.25;;
49614;SDS011;35517;45.272;9.984;2022-08-19T01:19:55;18.67;;;11.40;;
49614;SDS011;35517;45.272;9.984;2022-08-19T01:25:22;13.07;;;10.70;;
49614;SDS011;35517;45.272;9.984;2022-08-19T01:27:50;17.27;;;11.20;;
49614;SDS011;35517;45.272;9.984;2022-08-19T01:30:18;19.90;;;10.80;;
49614;SDS011;35517;45.272;9.984;2022-08-19T01:32:45;16.42;;;10.50;;
49614;SDS011;35517;45.272;9.984;2022-08-19T01:35:12;13.25;;;10.95;;
49614;SDS011;35517;45.272;9.984;2022-08-19T01:37:43;15.02;;;10.02;;
49614;SDS011;35517;45.272;9.984;2022-08-19T01:40:10;20.27;;;11.82;;
49614;SDS011;35517;45.272;9.984;2022-08-19T01:42:37;14.85;;;11.07;;
49614;SDS011;35517;45.272;9.984;2022-08-19T01:45:04;15.57;;;10.55;;
49614;SDS011;35517;45.272;9.984;2022-08-19T01:47:31;15.02;;;10.65;;
49614;SDS011;35517;45.272;9.984;2022-08-19T01:49:57;14.90;;;9.85;;
49614;SDS011;35517;45.272;9.984;2022-08-19T01:52:24;18.35;;;10.50;;
49614;SDS011;35517;45.272;9.984;2022-08-19T01:54:52;14.77;;;10.10;;
49614;SDS011;35517;45.272;9.984;2022-08-19T01:57:18;11.05;;;9.20;;
49614;SDS011;35517;45.272;9.984;2022-08-19T01:59:45;14.25;;;8.90;;
49614;SDS011;35517;45.272;9.984;2022-08-19T02:02:12;12.38;;;8.02;;
49614;SDS011;35517;45.272;9.984;2022-08-19T02:04:39;15.13;;;9.00;;
49614;SDS011;35517;45.272;9.984;2022-08-19T02:07:06;20.92;;;8.35;;
49614;SDS011;35517;45.272;9.984;2022-08-19T02:09:33;10.93;;;7.80;;
49614;SDS011;35517;45.272;9.984;2022-08-19T02:12:00;14.02;;;7.70;;
49614;SDS011;35517;45.272;9.984;2022-08-19T02:14:27;11.57;;;7.45;;
49614;SDS011;35517;45.272;9.984;2022-08-19T02:16:53;10.52;;;7.32;;
49614;SDS011;35517;45.272;9.984;2022-08-19T02:19:20;17.17;;;8.02;;
49614;SDS011;35517;45.272;9.984;2022-08-19T02:21:46;15.70;;;8.02;;
49614;SDS011;35517;45.272;9.984;2022-08-19T02:24:13;11.23;;;7.60;;
49614;SDS011;35517;45.272;9.984;2022-08-19T02:26:39;11.45;;;7.43;;
49614;SDS011;35517;45.272;9.984;2022-08-19T02:29:07;10.48;;;7.43;;
49614;SDS011;35517;45.272;9.984;2022-08-19T02:31:33;11.95;;;8.50;;
49614;SDS011;35517;45.272;9.984;2022-08-19T02:34:00;13.02;;;7.60;;
49614;SDS011;35517;45.272;9.984;2022-08-19T02:36:27;14.65;;;9.13;;
49614;SDS011;35517;45.272;9.984;2022-08-19T02:38:54;10.93;;;8.07;;
49614;SDS011;35517;45.272;9.984;2022-08-19T02:41:25;13.00;;;7.65;;
49614;SDS011;35517;45.272;9.984;2022-08-19T02:43:52;14.27;;;8.40;;
49614;SDS011;35517;45.272;9.984;2022-08-19T02:46:20;17.92;;;8.43;;
49614;SDS011;35517;45.272;9.984;2022-08-19T02:48:51;11.32;;;8.63;;
49614;SDS011;35517;45.272;9.984;2022-08-19T02:51:19;10.48;;;8.18;;
49614;SDS011;35517;45.272;9.984;2022-08-19T02:53:46;9.48;;;7.65;;
49614;SDS011;35517;45.272;9.984;2022-08-19T02:56:13;9.48;;;7.60;;
49614;SDS011;35517;45.272;9.984;2022-08-19T02:58:40;11.18;;;8.20;;
49614;SDS011;35517;45.272;9.984;2022-08-19T03:01:07;13.68;;;8.63;;
49614;SDS011;35517;45.272;9.984;2022-08-19T03:03:33;17.45;;;7.80;;
49614;SDS011;35517;45.272;9.984;2022-08-19T03:06:07;13.80;;;7.90;;
49614;SDS011;35517;45.272;9.984;2022-08-19T03:08:34;10.48;;;7.47;;
49614;SDS011;35517;45.272;9.984;2022-08-19T03:11:00;13.00;;;7.60;;
49614;SDS011;35517;45.272;9.984;2022-08-19T03:13:27;14.00;;;7.05;;
49614;SDS011;35517;45.272;9.984;2022-08-19T03:15:53;14.25;;;7.88;;
49614;SDS011;35517;45.272;9.984;2022-08-19T03:18:20;17.17;;;7.88;;
49614;SDS011;35517;45.272;9.984;2022-08-19T03:20:47;14.55;;;8.40;;
49614;SDS011;35517;45.272;9.984;2022-08-19T03:23:15;11.48;;;8.57;;
49614;SDS011;35517;45.272;9.984;2022-08-19T03:25:43;13.15;;;8.63;;
49614;SDS011;35517;45.272;9.984;2022-08-19T03:28:10;13.52;;;8.75;;
49614;SDS011;35517;45.272;9.984;2022-08-19T03:30:38;12.07;;;8.57;;
49614;SDS011;35517;45.272;9.984;2022-08-19T03:33:06;13.25;;;8.15;;
49614;SDS011;35517;45.272;9.984;2022-08-19T03:35:34;14.48;;;7.45;;
49614;SDS011;35517;45.272;9.984;2022-08-19T03:38:03;14.13;;;9.05;;
49614;SDS011;35517;45.272;9.984;2022-08-19T03:40:29;17.45;;;8.55;;
49614;SDS011;35517;45.272;9.984;2022-08-19T03:42:56;17.83;;;8.32;;
49614;SDS011;35517;45.272;9.984;2022-08-19T03:45:23;13.60;;;8.63;;
49614;SDS011;35517;45.272;9.984;2022-08-19T03:47:50;12.10;;;8.80;;
49614;SDS011;35517;45.272;9.984;2022-08-19T03:50:17;15.85;;;8.98;;
49614;SDS011;35517;45.272;9.984;2022-08-19T03:52:51;18.13;;;9.77;;
49614;SDS011;35517;45.272;9.984;2022-08-19T03:55:18;16.00;;;9.13;;
49614;SDS011;35517;45.272;9.984;2022-08-19T03:57:44;12.93;;;9.32;;
49614;SDS011;35517;45.272;9.984;2022-08-19T04:00:13;9.77;;;8.27;;
49614;SDS011;35517;45.272;9.984;2022-08-19T04:02:40;19.70;;;10.57;;
49614;SDS011;35517;45.272;9.984;2022-08-19T04:05:07;12.93;;;9.40;;
49614;SDS011;35517;45.272;9.984;2022-08-19T04:07:34;21.30;;;10.40;;
49614;SDS011;35517;45.272;9.984;2022-08-19T04:10:01;17.17;;;9.80;;
49614;SDS011;35517;45.272;9.984;2022-08-19T04:12:27;20.02;;;10.00;;
49614;SDS011;35517;45.272;9.984;2022-08-19T04:14:54;20.23;;;10.75;;
49614;SDS011;35517;45.272;9.984;2022-08-19T04:17:21;29.25;;;12.60;;
49614;SDS011;35517;45.272;9.984;2022-08-19T04:19:47;23.98;;;12.98;;
49614;SDS011;35517;45.272;9.984;2022-08-19T04:22:14;23.02;;;13.90;;
49614;SDS011;35517;45.272;9.984;2022-08-19T04:24:40;14.93;;;11.25;;
49614;SDS011;35517;45.272;9.984;2022-08-19T04:27:07;15.57;;;10.85;;
49614;SDS011;35517;45.272;9.984;2022-08-19T04:29:33;22.30;;;10.68;;
49614;SDS011;35517;45.272;9.984;2022-08-19T04:32:00;25.10;;;11.32;;
49614;SDS011;35517;45.272;9.984;2022-08-19T04:34:27;21.73;;;13.35;;
49614;SDS011;35517;45.272;9.984;2022-08-19T04:36:55;20.23;;;11.50;;
49614;SDS011;35517;45.272;9.984;2022-08-19T04:39:23;20.13;;;11.27;;
49614;SDS011;35517;45.272;9.984;2022-08-19T04:42:14;8.23;;;5.53;;
49614;SDS011;35517;45.272;9.984;2022-08-19T04:45:00;6.10;;;1.48;;
49614;SDS011;35517;45.272;9.984;2022-08-19T04:47:28;2.80;;;0.57;;
49614;SDS011;35517;45.272;9.984;2022-08-19T04:49:55;0.90;;;0.38;;
49614;SDS011;35517;45.272;9.984;2022-08-19T04:52:22;8.05;;;0.75;;
49614;SDS011;35517;45.272;9.984;2022-08-19T04:54:48;4.50;;;0.70;;
49614;SDS011;35517;45.272;9.984;2022-08-19T04:57:15;9.80;;;0.95;;
49614;SDS011;35517;45.272;9.984;2022-08-19T04:59:41;3.55;;;0.50;;
49614;SDS011;35517;45.272;9.984;2022-08-19T05:02:08;5.45;;;0.88;;
49614;SDS011;35517;45.272;9.984;2022-08-19T05:04:35;3.38;;;0.85;;
49614;SDS011;35517;45.272;9.984;2022-08-19T05:07:04;2.33;;;0.50;;
49614;SDS011;35517;45.272;9.984;2022-08-19T05:09:31;0.00;;;0.00;;
49614;SDS011;35517;45.272;9.984;2022-08-19T05:11:57;0.00;;;0.00;;
49614;SDS011;35517;45.272;9.984;2022-08-19T05:14:25;0.00;;;0.00;;
49614;SDS011;35517;45.272;9.984;2022-08-19T05:16:52;0.00;;;0.00;;
49614;SDS011;35517;45.272;9.984;2022-08-19T05:19:18;0.00;;;0.00;;
49614;SDS011;35517;45.272;9.984;2022-08-19T05:22:04;0.00;;;0.00;;
49614;SDS011;35517;45.272;9.984;2022-08-19T05:24:49;0.00;;;0.00;;
49614;SDS011;35517;45.272;9.984;2022-08-19T05:27:15;0.00;;;0.00;;
49614;SDS011;35517;45.272;9.984;2022-08-19T05:29:42;0.15;;;0.15;;
49614;SDS011;35517;45.272;9.984;2022-08-19T05:32:08;0.00;;;0.00;;
49614;SDS011;35517;45.272;9.984;2022-08-19T05:34:36;0.45;;;0.45;;
49614;SDS011;35517;45.272;9.984;2022-08-19T05:37:03;0.00;;;0.00;;
49614;SDS011;35517;45.272;9.984;2022-08-19T05:39:31;0.00;;;0.00;;
49614;SDS011;35517;45.272;9.984;2022-08-19T05:41:59;0.35;;;0.35;;
49614;SDS011;35517;45.272;9.984;2022-08-19T05:44:28;0.00;;;0.00;;
49614;SDS011;35517;45.272;9.984;2022-08-19T05:46:59;0.00;;;0.00;;
49614;SDS011;35517;45.272;9.984;2022-08-19T05:49:26;0.00;;;0.00;;
49614;SDS011;35517;45.272;9.984;2022-08-19T05:51:53;0.00;;;0.00;;
49614;SDS011;35517;45.272;9.984;2022-08-19T05:54:21;0.00;;;0.00;;
49614;SDS011;35517;45.272;9.984;2022-08-19T05:56:51;0.00;;;0.00;;
49614;SDS011;35517;45.272;9.984;2022-08-19T05:59:19;0.00;;;0.00;;
49614;SDS011;35517;45.272;9.984;2022-08-19T06:01:47;0.00;;;0.00;;
49614;SDS011;35517;45.272;9.984;2022-08-19T06:04:18;0.00;;;0.00;;
49614;SDS011;35517;45.272;9.984;2022-08-19T06:06:45;0.00;;;0.00;;
49614;SDS011;35517;45.272;9.984;2022-08-19T06:09:12;0.00;;;0.00;;
49614;SDS011;35517;45.272;9.984;2022-08-19T06:11:43;0.00;;;0.00;;
49614;SDS011;35517;45.272;9.984;2022-08-19T06:14:12;0.00;;;0.00;;
49614;SDS011;35517;45.272;9.984;2022-08-19T06:16:39;0.00;;;0.00;;
49614;SDS011;35517;45.272;9.984;2022-08-19T06:19:08;0.00;;;0.00;;
49614;SDS011;35517;45.272;9.984;2022-08-19T06:21:38;0.00;;;0.00;;
49614;SDS011;35517;45.272;9.984;2022-08-19T06:24:06;0.00;;;0.00;;
49614;SDS011;35517;45.272;9.984;2022-08-19T06:26:34;0.00;;;0.00;;
49614;SDS011;35517;45.272;9.984;2022-08-19T06:29:02;0.00;;;0.00;;
49614;SDS011;35517;45.272;9.984;2022-08-19T06:31:29;0.00;;;0.00;;
49614;SDS011;35517;45.272;9.984;2022-08-19T06:33:56;0.20;;;0.20;;
49614;SDS011;35517;45.272;9.984;2022-08-19T06:36:27;0.00;;;0.00;;
49614;SDS011;35517;45.272;9.984;2022-08-19T06:38:55;0.05;;;0.05;;
49614;SDS011;35517;45.272;9.984;2022-08-19T06:41:23;0.00;;;0.00;;
49614;SDS011;35517;45.272;9.984;2022-08-19T06:43:50;0.00;;;0.00;;
49614;SDS011;35517;45.272;9.984;2022-08-19T06:49:07;0.00;;;0.00;;
49614;SDS011;35517;45.272;9.984;2022-08-19T06:51:43;0.00;;;0.00;;
49614;SDS011;35517;45.272;9.984;2022-08-19T06:54:10;0.00;;;0.00;;
49614;SDS011;35517;45.272;9.984;2022-08-19T06:56:37;0.00;;;0.00;;
49614;SDS011;35517;45.272;9.984;2022-08-19T06:59:04;0.00;;;0.00;;
49614;SDS011;35517;45.272;9.984;2022-08-19T07:01:39;0.20;;;0.20;;
49614;SDS011;35517;45.272;9.984;2022-08-19T07:04:06;0.00;;;0.00;;
49614;SDS011;35517;45.272;9.984;2022-08-19T07:06:34;0.20;;;0.20;;
49614;SDS011;35517;45.272;9.984;2022-08-19T07:09:00;0.00;;;0.00;;
49614;SDS011;35517;45.272;9.984;2022-08-19T07:11:27;0.00;;;0.00;;
49614;SDS011;35517;45.272;9.984;2022-08-19T07:13:54;0.00;;;0.00;;
49614;SDS011;35517;45.272;9.984;2022-08-19T07:16:20;2.08;;;0.65;;
49614;SDS011;35517;45.272;9.984;2022-08-19T07:18:47;0.00;;;0.00;;
49614;SDS011;35517;45.272;9.984;2022-08-19T07:21:21;0.00;;;0.00;;
49614;SDS011;35517;45.272;9.984;2022-08-19T07:23:49;0.00;;;0.00;;
49614;SDS011;35517;45.272;9.984;2022-08-19T07:26:18;0.00;;;0.00;;
49614;SDS011;35517;45.272;9.984;2022-08-19T07:28:46;0.00;;;0.00;;
49614;SDS011;35517;45.272;9.984;2022-08-19T07:31:15;0.00;;;0.00;;
49614;SDS011;35517;45.272;9.984;2022-08-19T07:33:44;0.20;;;0.20;;
49614;SDS011;35517;45.272;9.984;2022-08-19T07:36:11;0.00;;;0.00;;
49614;SDS011;35517;45.272;9.984;2022-08-19T07:38:42;0.00;;;0.00;;
49614;SDS011;35517;45.272;9.984;2022-08-19T07:41:09;0.00;;;0.00;;
49614;SDS011;35517;45.272;9.984;2022-08-19T07:43:37;0.08;;;0.08;;
49614;SDS011;35517;45.272;9.984;2022-08-19T07:46:04;0.00;;;0.00;;
49614;SDS011;35517;45.272;9.984;2022-08-19T07:48:31;0.00;;;0.00;;
49614;SDS011;35517;45.272;9.984;2022-08-19T07:50:59;0.00;;;0.00;;
49614;SDS011;35517;45.272;9.984;2022-08-19T07:53:30;0.00;;;0.00;;
49614;SDS011;35517;45.272;9.984;2022-08-19T07:55:56;0.00;;;0.00;;
49614;SDS011;35517;45.272;9.984;2022-08-19T08:00:55;0.30;;;0.30;;
49614;SDS011;35517;45.272;9.984;2022-08-19T08:03:22;0.00;;;0.00;;
49614;SDS011;35517;45.272;9.984;2022-08-19T08:06:09;0.00;;;0.00;;
49614;SDS011;35517;45.272;9.984;2022-08-19T08:08:54;0.00;;;0.00;;
49614;SDS011;35517;45.272;9.984;2022-08-19T08:11:37;0.00;;;0.00;;
49614;SDS011;35517;45.272;9.984;2022-08-19T08:14:04;0.00;;;0.00;;
49614;SDS011;35517;45.272;9.984;2022-08-19T08:16:40;0.00;;;0.00;;
49614;SDS011;35517;45.272;9.984;2022-08-19T08:19:09;0.20;;;0.20;;
49614;SDS011;35517;45.272;9.984;2022-08-19T08:21:35;0.00;;;0.00;;
49614;SDS011;35517;45.272;9.984;2022-08-19T08:24:02;0.00;;;0.00;;
49614;SDS011;35517;45.272;9.984;2022-08-19T08:26:29;0.00;;;0.00;;
49614;SDS011;35517;45.272;9.984;2022-08-19T08:28:55;2.22;;;0.80;;
49614;SDS011;35517;45.272;9.984;2022-08-19T08:31:22;0.10;;;0.10;;
49614;SDS011;35517;45.272;9.984;2022-08-19T08:33:49;0.00;;;0.00;;
49614;SDS011;35517;45.272;9.984;2022-08-19T08:36:15;0.00;;;0.00;;
49614;SDS011;35517;45.272;9.984;2022-08-19T08:38:43;0.00;;;0.00;;
49614;SDS011;35517;45.272;9.984;2022-08-19T08:43:46;0.00;;;0.00;;
49614;SDS011;35517;45.272;9.984;2022-08-19T08:46:15;0.00;;;0.00;;
49614;SDS011;35517;45.272;9.984;2022-08-19T08:51:16;0.08;;;0.05;;
49614;SDS011;35517;45.272;9.984;2022-08-19T08:53:44;0.00;;;0.00;;
49614;SDS011;35517;45.272;9.984;2022-08-19T08:56:12;0.65;;;0.65;;
49614;SDS011;35517;45.272;9.984;2022-08-19T08:58:45;0.00;;;0.00;;
49614;SDS011;35517;45.272;9.984;2022-08-19T09:01:13;0.00;;;0.00;;
49614;SDS011;35517;45.272;9.984;2022-08-19T09:03:41;0.00;;;0.00;;
49614;SDS011;35517;45.272;9.984;2022-08-19T09:06:14;0.00;;;0.00;;
49614;SDS011;35517;45.272;9.984;2022-08-19T09:11:44;0.20;;;0.20;;
49614;SDS011;35517;45.272;9.984;2022-08-19T09:14:26;0.00;;;0.00;;
49614;SDS011;35517;45.272;9.984;2022-08-19T09:16:56;0.00;;;0.00;;
49614;SDS011;35517;45.272;9.984;2022-08-19T09:19:23;0.00;;;0.00;;
49614;SDS011;35517;45.272;9.984;2022-08-19T09:21:50;0.00;;;0.00;;
49614;SDS011;35517;45.272;9.984;2022-08-19T09:24:16;0.00;;;0.00;;
49614;SDS011;35517;45.272;9.984;2022-08-19T09:26:43;0.20;;;0.20;;
49614;SDS011;35517;45.272;9.984;2022-08-19T09:29:10;0.00;;;0.00;;
49614;SDS011;35517;45.272;9.984;2022-08-19T09:31:37;0.00;;;0.00;;
49614;SDS011;35517;45.272;9.984;2022-08-19T09:34:04;0.00;;;0.00;;
49614;SDS011;35517;45.272;9.984;2022-08-19T09:36:31;0.00;;;0.00;;
49614;SDS011;35517;45.272;9.984;2022-08-19T09:38:59;0.00;;;0.00;;
49614;SDS011;35517;45.272;9.984;2022-08-19T09:41:26;0.00;;;0.00;;
49614;SDS011;35517;45.272;9.984;2022-08-19T09:43:53;0.00;;;0.00;;
49614;SDS011;35517;45.272;9.984;2022-08-19T09:46:24;0.00;;;0.00;;
49614;SDS011;35517;45.272;9.984;2022-08-19T09:48:51;0.00;;;0.00;;
49614;SDS011;35517;45.272;9.984;2022-08-19T09:51:23;0.00;;;0.00;;
49614;SDS011;35517;45.272;9.984;2022-08-19T09:53:50;0.00;;;0.00;;
49614;SDS011;35517;45.272;9.984;2022-08-19T09:56:19;0.13;;;0.13;;
49614;SDS011;35517;45.272;9.984;2022-08-19T09:58:46;0.38;;;0.15;;
49614;SDS011;35517;45.272;9.984;2022-08-19T10:01:31;0.00;;;0.00;;
49614;SDS011;35517;45.272;9.984;2022-08-19T10:03:59;0.00;;;0.00;;
49614;SDS011;35517;45.272;9.984;2022-08-19T10:06:27;0.00;;;0.00;;
49614;SDS011;35517;45.272;9.984;2022-08-19T10:08:57;0.00;;;0.00;;
49614;SDS011;35517;45.272;9.984;2022-08-19T10:11:23;0.00;;;0.00;;
49614;SDS011;35517;45.272;9.984;2022-08-19T10:13:50;0.13;;;0.10;;
49614;SDS011;35517;45.272;9.984;2022-08-19T10:16:19;0.03;;;0.03;;
49614;SDS011;35517;45.272;9.984;2022-08-19T10:18:47;0.00;;;0.00;;
49614;SDS011;35517;45.272;9.984;2022-08-19T10:21:19;0.00;;;0.00;;
49614;SDS011;35517;45.272;9.984;2022-08-19T10:23:47;0.00;;;0.00;;
49614;SDS011;35517;45.272;9.984;2022-08-19T10:26:19;0.00;;;0.00;;
49614;SDS011;35517;45.272;9.984;2022-08-19T10:28:46;0.00;;;0.00;;
49614;SDS011;35517;45.272;9.984;2022-08-19T10:31:15;0.00;;;0.00;;
49614;SDS011;35517;45.272;9.984;2022-08-19T10:33:43;0.00;;;0.00;;
49614;SDS011;35517;45.272;9.984;2022-08-19T10:36:11;0.00;;;0.00;;
49614;SDS011;35517;45.272;9.984;2022-08-19T10:38:40;0.10;;;0.10;;
49614;SDS011;35517;45.272;9.984;2022-08-19T10:41:18;0.00;;;0.00;;
49614;SDS011;35517;45.272;9.984;2022-08-19T10:43:45;0.00;;;0.00;;
49614;SDS011;35517;45.272;9.984;2022-08-19T10:46:14;0.00;;;0.00;;
49614;SDS011;35517;45.272;9.984;2022-08-19T10:48:41;0.00;;;0.00;;
49614;SDS011;35517;45.272;9.984;2022-08-19T10:51:08;0.00;;;0.00;;
49614;SDS011;35517;45.272;9.984;2022-08-19T10:53:54;0.00;;;0.00;;
49614;SDS011;35517;45.272;9.984;2022-08-19T10:56:21;0.00;;;0.00;;
49614;SDS011;35517;45.272;9.984;2022-08-19T10:59:06;0.00;;;0.00;;
49614;SDS011;35517;45.272;9.984;2022-08-19T11:01:33;0.32;;;0.28;;
49614;SDS011;35517;45.272;9.984;2022-08-19T11:04:00;0.00;;;0.00;;
49614;SDS011;35517;45.272;9.984;2022-08-19T11:06:27;0.00;;;0.00;;
49614;SDS011;35517;45.272;9.984;2022-08-19T11:08:55;0.00;;;0.00;;
49614;SDS011;35517;45.272;9.984;2022-08-19T11:11:22;0.10;;;0.10;;
49614;SDS011;35517;45.272;9.984;2022-08-19T11:13:49;0.00;;;0.00;;
49614;SDS011;35517;45.272;9.984;2022-08-19T11:16:17;0.00;;;0.00;;
49614;SDS011;35517;45.272;9.984;2022-08-19T11:18:46;0.05;;;0.05;;
49614;SDS011;35517;45.272;9.984;2022-08-19T11:23:44;0.00;;;0.00;;
49614;SDS011;35517;45.272;9.984;2022-08-19T11:26:12;0.00;;;0.00;;
49614;SDS011;35517;45.272;9.984;2022-08-19T11:28:39;0.00;;;0.00;;
49614;SDS011;35517;45.272;9.984;2022-08-19T11:31:10;0.00;;;0.00;;
49614;SDS011;35517;45.272;9.984;2022-08-19T11:33:37;0.00;;;0.00;;
49614;SDS011;35517;45.272;9.984;2022-08-19T11:36:03;0.00;;;0.00;;
49614;SDS011;35517;45.272;9.984;2022-08-19T11:38:30;0.52;;;0.15;;
49614;SDS011;35517;45.272;9.984;2022-08-19T11:40:57;0.00;;;0.00;;
49614;SDS011;35517;45.272;9.984;2022-08-19T11:43:24;0.00;;;0.00;;
49614;SDS011;35517;45.272;9.984;2022-08-19T11:45:54;0.00;;;0.00;;
49614;SDS011;35517;45.272;9.984;2022-08-19T11:48:21;0.00;;;0.00;;
49614;SDS011;35517;45.272;9.984;2022-08-19T11:50:52;0.00;;;0.00;;
49614;SDS011;35517;45.272;9.984;2022-08-19T11:53:22;0.00;;;0.00;;
49614;SDS011;35517;45.272;9.984;2022-08-19T11:55:49;0.00;;;0.00;;
49614;SDS011;35517;45.272;9.984;2022-08-19T11:58:16;0.00;;;0.00;;
49614;SDS011;35517;45.272;9.984;2022-08-19T12:00:44;0.00;;;0.00;;
49614;SDS011;35517;45.272;9.984;2022-08-19T12:03:12;0.00;;;0.00;;
49614;SDS011;35517;45.272;9.984;2022-08-19T12:05:39;0.00;;;0.00;;
49614;SDS011;35517;45.272;9.984;2022-08-19T12:08:06;0.28;;;0.20;;
49614;SDS011;35517;45.272;9.984;2022-08-19T12:10:33;0.22;;;0.22;;
49614;SDS011;35517;45.272;9.984;2022-08-19T12:13:00;0.35;;;0.35;;
49614;SDS011;35517;45.272;9.984;2022-08-19T12:15:27;0.00;;;0.00;;
49614;SDS011;35517;45.272;9.984;2022-08-19T12:17:55;0.00;;;0.00;;
49614;SDS011;35517;45.272;9.984;2022-08-19T12:20:22;0.00;;;0.00;;
49614;SDS011;35517;45.272;9.984;2022-08-19T12:22:49;0.00;;;0.00;;
49614;SDS011;35517;45.272;9.984;2022-08-19T12:25:17;0.03;;;0.03;;
49614;SDS011;35517;45.272;9.984;2022-08-19T12:27:43;0.00;;;0.00;;
49614;SDS011;35517;45.272;9.984;2022-08-19T12:30:11;0.00;;;0.00;;
49614;SDS011;35517;45.272;9.984;2022-08-19T12:32:38;0.00;;;0.00;;
49614;SDS011;35517;45.272;9.984;2022-08-19T12:35:05;0.00;;;0.00;;
49614;SDS011;35517;45.272;9.984;2022-08-19T12:37:32;0.00;;;0.00;;
49614;SDS011;35517;45.272;9.984;2022-08-19T12:39:58;0.00;;;0.00;;
49614;SDS011;35517;45.272;9.984;2022-08-19T12:42:25;0.08;;;0.00;;
49614;SDS011;35517;45.272;9.984;2022-08-19T12:44:51;0.00;;;0.00;;
49614;SDS011;35517;45.272;9.984;2022-08-19T12:47:18;0.00;;;0.00;;
49614;SDS011;35517;45.272;9.984;2022-08-19T12:49:45;0.00;;;0.00;;
49614;SDS011;35517;45.272;9.984;2022-08-19T12:52:12;0.00;;;0.00;;
49614;SDS011;35517;45.272;9.984;2022-08-19T12:54:42;0.10;;;0.10;;
49614;SDS011;35517;45.272;9.984;2022-08-19T12:57:09;0.00;;;0.00;;
49614;SDS011;35517;45.272;9.984;2022-08-19T12:59:37;0.00;;;0.00;;
49614;SDS011;35517;45.272;9.984;2022-08-19T13:02:07;0.00;;;0.00;;
49614;SDS011;35517;45.272;9.984;2022-08-19T13:04:34;0.00;;;0.00;;
49614;SDS011;35517;45.272;9.984;2022-08-19T13:07:02;0.00;;;0.00;;
49614;SDS011;35517;45.272;9.984;2022-08-19T13:09:29;0.00;;;0.00;;
49614;SDS011;35517;45.272;9.984;2022-08-19T13:11:55;0.00;;;0.00;;
49614;SDS011;35517;45.272;9.984;2022-08-19T13:14:22;0.00;;;0.00;;
49614;SDS011;35517;45.272;9.984;2022-08-19T13:16:49;0.00;;;0.00;;
49614;SDS011;35517;45.272;9.984;2022-08-19T13:19:15;0.10;;;0.10;;
49614;SDS011;35517;45.272;9.984;2022-08-19T13:21:48;0.00;;;0.00;;
49614;SDS011;35517;45.272;9.984;2022-08-19T13:24:15;0.08;;;0.08;;
49614;SDS011;35517;45.272;9.984;2022-08-19T13:26:41;0.00;;;0.00;;
49614;SDS011;35517;45.272;9.984;2022-08-19T13:29:09;0.00;;;0.00;;
49614;SDS011;35517;45.272;9.984;2022-08-19T13:31:54;0.10;;;0.10;;
49614;SDS011;35517;45.272;9.984;2022-08-19T13:34:39;0.00;;;0.00;;
49614;SDS011;35517;45.272;9.984;2022-08-19T13:37:06;0.00;;;0.00;;
49614;SDS011;35517;45.272;9.984;2022-08-19T13:39:33;0.00;;;0.00;;
49614;SDS011;35517;45.272;9.984;2022-08-19T13:42:00;0.00;;;0.00;;
49614;SDS011;35517;45.272;9.984;2022-08-19T13:44:27;0.00;;;0.00;;
49614;SDS011;35517;45.272;9.984;2022-08-19T13:46:55;0.00;;;0.00;;
49614;SDS011;35517;45.272;9.984;2022-08-19T13:49:27;0.00;;;0.00;;
49614;SDS011;35517;45.272;9.984;2022-08-19T13:51:56;0.30;;;0.20;;
49614;SDS011;35517;45.272;9.984;2022-08-19T13:54:23;0.00;;;0.00;;
49614;SDS011;35517;45.272;9.984;2022-08-19T13:56:49;0.00;;;0.00;;
49614;SDS011;35517;45.272;9.984;2022-08-19T13:59:16;0.00;;;0.00;;
49614;SDS011;35517;45.272;9.984;2022-08-19T14:01:43;0.00;;;0.00;;
49614;SDS011;35517;45.272;9.984;2022-08-19T14:04:10;0.03;;;0.03;;
49614;SDS011;35517;45.272;9.984;2022-08-19T14:06:36;0.00;;;0.00;;
49614;SDS011;35517;45.272;9.984;2022-08-19T14:09:03;0.00;;;0.00;;
49614;SDS011;35517;45.272;9.984;2022-08-19T14:11:30;0.00;;;0.00;;
49614;SDS011;35517;45.272;9.984;2022-08-19T14:13:57;0.00;;;0.00;;
49614;SDS011;35517;45.272;9.984;2022-08-19T14:16:23;0.00;;;0.00;;
49614;SDS011;35517;45.272;9.984;2022-08-19T14:18:50;0.00;;;0.00;;
49614;SDS011;35517;45.272;9.984;2022-08-19T14:21:19;0.00;;;0.00;;
49614;SDS011;35517;45.272;9.984;2022-08-19T14:23:48;0.00;;;0.00;;
49614;SDS011;35517;45.272;9.984;2022-08-19T14:26:15;0.00;;;0.00;;
49614;SDS011;35517;45.272;9.984;2022-08-19T14:28:42;0.00;;;0.00;;
49614;SDS011;35517;45.272;9.984;2022-08-19T14:31:13;0.00;;;0.00;;
49614;SDS011;35517;45.272;9.984;2022-08-19T14:33:45;0.00;;;0.00;;
49614;SDS011;35517;45.272;9.984;2022-08-19T14:36:12;0.00;;;0.00;;
49614;SDS011;35517;45.272;9.984;2022-08-19T14:38:39;0.00;;;0.00;;
49614;SDS011;35517;45.272;9.984;2022-08-19T14:41:10;0.00;;;0.00;;
49614;SDS011;35517;45.272;9.984;2022-08-19T14:43:37;0.00;;;0.00;;
49614;SDS011;35517;45.272;9.984;2022-08-19T14:46:04;0.00;;;0.00;;
49614;SDS011;35517;45.272;9.984;2022-08-19T14:48:30;0.00;;;0.00;;
49614;SDS011;35517;45.272;9.984;2022-08-19T14:50:57;0.00;;;0.00;;
49614;SDS011;35517;45.272;9.984;2022-08-19T14:53:24;0.00;;;0.00;;
49614;SDS011;35517;45.272;9.984;2022-08-19T14:55:51;0.10;;;0.10;;
49614;SDS011;35517;45.272;9.984;2022-08-19T14:58:17;0.00;;;0.00;;
49614;SDS011;35517;45.272;9.984;2022-08-19T15:00:44;0.05;;;0.05;;
49614;SDS011;35517;45.272;9.984;2022-08-19T15:03:11;0.10;;;0.00;;
49614;SDS011;35517;45.272;9.984;2022-08-19T15:05:38;0.00;;;0.00;;